createdAt,value
2022-08-03T00:00:36.112Z,99.90
2022-08-03T00:03:04.457Z,99.90
2022-08-03T00:05:33.357Z,99.90
2022-08-03T00:08:01.787Z,99.90
2022-08-03T00:10:32.051Z,99.90
2022-08-03T00:13:00.329Z,99.90
2022-08-03T00:15:28.616Z,99.90
2022-08-03T00:17:56.854Z,99.90
2022-08-03T00:20:25.722Z,99.90
2022-08-03T00:22:53.947Z,99.90
2022-08-03T00:25:22.203Z,99.90
2022-08-03T00:27:51.706Z,99.90
2022-08-03T00:30:20.184Z,99.90
2022-08-03T00:32:48.504Z,99.90
2022-08-03T00:35:36.929Z,99.90
2022-08-03T00:38:06.124Z,99.90
2022-08-03T00:40:34.706Z,99.90
2022-08-03T00:43:06.680Z,99.90
2022-08-03T00:45:36.799Z,99.90
2022-08-03T00:48:06.887Z,99.90
2022-08-03T00:50:55.452Z,99.90
2022-08-03T00:53:23.859Z,99.90
2022-08-03T00:55:52.319Z,99.90
2022-08-03T00:58:22.444Z,99.90
2022-08-03T01:00:51.315Z,99.90
2022-08-03T01:03:19.663Z,99.90
2022-08-03T01:05:56.418Z,99.90
2022-08-03T01:08:31.883Z,99.90
2022-08-03T01:11:09.661Z,99.90
2022-08-03T01:14:01.527Z,99.90
2022-08-03T01:16:37.515Z,99.90
2022-08-03T01:19:16.663Z,99.90
2022-08-03T01:22:11.525Z,99.90
2022-08-03T01:24:51.706Z,99.90
2022-08-03T01:27:23.460Z,99.90
2022-08-03T01:30:05.770Z,99.90
2022-08-03T01:33:02.618Z,99.90
2022-08-03T01:35:38.653Z,99.90
2022-08-03T01:38:13.175Z,99.90
2022-08-03T01:40:44.421Z,99.90
2022-08-03T01:43:55.506Z,99.90
2022-08-03T01:46:09.744Z,99.90
2022-08-03T01:48:41.072Z,99.90
2022-08-03T01:51:11.587Z,99.90
2022-08-03T01:53:42.817Z,99.90
2022-08-03T01:56:12.870Z,99.90
2022-08-03T01:58:43.197Z,99.90
2022-08-03T02:01:14.821Z,99.90
2022-08-03T02:04:00.284Z,99.90
2022-08-03T02:07:00.420Z,99.90
2022-08-03T02:09:22.764Z,99.90
2022-08-03T02:11:53.116Z,99.90
2022-08-03T02:14:23.221Z,99.90
2022-08-03T02:16:53.885Z,99.90
2022-08-03T02:19:23.555Z,99.90
2022-08-03T02:21:56.830Z,99.90
2022-08-03T02:24:30.708Z,99.90
2022-08-03T02:27:00.855Z,99.90
2022-08-03T02:29:39.331Z,99.90
2022-08-03T02:32:16.593Z,99.90
2022-08-03T02:34:50.010Z,99.90
2022-08-03T02:37:21.014Z,99.90
2022-08-03T02:39:53.338Z,99.90
2022-08-03T02:42:24.346Z,99.90
2022-08-03T02:44:56.508Z,99.90
2022-08-03T02:47:28.808Z,99.90
2022-08-03T02:50:18.483Z,99.90
2022-08-03T02:52:48.986Z,99.90
2022-08-03T02:55:18.169Z,99.90
2022-08-03T02:57:48.508Z,99.90
2022-08-03T03:00:27.494Z,99.90
2022-08-03T03:03:00.907Z,99.90
2022-08-03T03:05:54.450Z,99.90
2022-08-03T03:08:20.747Z,99.90
2022-08-03T03:10:55.901Z,99.90
2022-08-03T03:13:25.296Z,99.90
2022-08-03T03:15:55.544Z,99.90
2022-08-03T03:18:26.200Z,99.90
2022-08-03T03:20:55.240Z,99.90
2022-08-03T03:23:24.928Z,99.90
2022-08-03T03:25:54.671Z,99.90
2022-08-03T03:28:23.500Z,99.90
2022-08-03T03:30:53.530Z,99.90
2022-08-03T03:33:22.656Z,99.90
2022-08-03T03:35:52.854Z,99.90
2022-08-03T03:38:21.762Z,99.90
2022-08-03T03:40:50.244Z,99.90
2022-08-03T03:43:19.592Z,99.90
2022-08-03T03:45:49.204Z,99.90
2022-08-03T03:48:17.670Z,99.90
2022-08-03T03:50:46.502Z,99.90
2022-08-03T03:53:16.314Z,99.90
2022-08-03T03:56:02.114Z,99.90
2022-08-03T03:58:33.046Z,99.90
2022-08-03T04:01:02.038Z,99.90
2022-08-03T04:03:30.418Z,99.90
2022-08-03T04:06:16.696Z,99.90
2022-08-03T04:09:04.420Z,99.90
2022-08-03T04:11:37.785Z,99.90
2022-08-03T04:14:10.596Z,99.90
2022-08-03T04:16:43.934Z,99.90
2022-08-03T04:19:21.051Z,99.90
2022-08-03T04:21:57.034Z,99.90
2022-08-03T04:24:31.726Z,99.90
2022-08-03T04:27:01.871Z,99.90
2022-08-03T04:29:32.117Z,99.90
2022-08-03T04:32:03.058Z,99.90
2022-08-03T04:34:32.085Z,99.90
2022-08-03T04:37:02.956Z,99.90
2022-08-03T04:39:33.857Z,99.90
2022-08-03T04:42:08.030Z,99.90
2022-08-03T04:44:39.402Z,99.90
2022-08-03T04:47:08.176Z,99.90
2022-08-03T04:49:38.081Z,99.90
2022-08-03T04:52:08.367Z,99.90
2022-08-03T04:54:42.593Z,99.90
2022-08-03T04:57:22.998Z,99.90
2022-08-03T05:00:01.469Z,99.90
2022-08-03T05:02:33.587Z,99.90
2022-08-03T05:05:01.980Z,99.90
2022-08-03T05:07:35.695Z,99.90
2022-08-03T05:10:14.846Z,99.90
2022-08-03T05:12:46.307Z,99.90
2022-08-03T05:15:14.791Z,99.90
2022-08-03T05:17:43.146Z,99.90
2022-08-03T05:20:12.676Z,99.90
2022-08-03T05:22:41.041Z,99.90
2022-08-03T05:25:19.790Z,99.90
2022-08-03T05:27:49.904Z,99.90
2022-08-03T05:30:30.468Z,99.90
2022-08-03T05:33:03.652Z,99.90
2022-08-03T05:35:55.667Z,99.90
2022-08-03T05:38:28.889Z,99.90
2022-08-03T05:41:22.399Z,99.90
2022-08-03T05:43:53.759Z,99.90
2022-08-03T05:46:22.620Z,99.90
2022-08-03T05:48:51.423Z,99.90
2022-08-03T05:51:19.799Z,99.90
2022-08-03T05:53:48.323Z,99.90
2022-08-03T05:56:17.970Z,99.20
2022-08-03T05:58:47.856Z,98.50
2022-08-03T06:01:17.050Z,98.20
2022-08-03T06:03:46.290Z,97.70
2022-08-03T06:06:15.132Z,97.50
2022-08-03T06:08:44.365Z,97.50
2022-08-03T06:11:13.155Z,97.30
2022-08-03T06:13:43.216Z,97.40
2022-08-03T06:16:11.687Z,97.50
2022-08-03T06:18:40.479Z,97.60
2022-08-03T06:21:14.594Z,97.80
2022-08-03T06:23:54.446Z,97.90
2022-08-03T06:26:25.484Z,97.90
2022-08-03T06:28:55.964Z,97.70
2022-08-03T06:31:32.240Z,97.70
2022-08-03T06:34:32.770Z,98.00
2022-08-03T06:36:51.020Z,97.80
2022-08-03T06:39:23.603Z,97.70
2022-08-03T06:41:53.643Z,97.50
2022-08-03T06:44:23.388Z,97.40
2022-08-03T06:46:52.508Z,96.80
2022-08-03T06:49:20.823Z,96.50
2022-08-03T06:52:05.134Z,96.30
2022-08-03T06:54:36.954Z,95.80
2022-08-03T06:57:06.314Z,95.50
2022-08-03T07:00:06.087Z,95.10
2022-08-03T07:02:24.480Z,95.20
2022-08-03T07:04:58.519Z,94.50
2022-08-03T07:07:26.836Z,94.10
2022-08-03T07:09:57.867Z,94.00
2022-08-03T07:12:30.969Z,94.00
2022-08-03T07:15:02.858Z,93.60
2022-08-03T07:17:34.972Z,92.40
2022-08-03T07:20:06.032Z,92.40
2022-08-03T07:22:34.781Z,92.70
2022-08-03T07:25:03.349Z,91.30
2022-08-03T07:27:32.204Z,90.60
2022-08-03T07:30:01.819Z,90.30
2022-08-03T07:32:31.489Z,90.20
2022-08-03T07:35:01.095Z,90.40
2022-08-03T07:37:30.798Z,88.80
2022-08-03T07:39:59.588Z,90.00
2022-08-03T07:42:28.727Z,90.20
2022-08-03T07:44:57.471Z,90.00
2022-08-03T07:47:34.790Z,89.30
2022-08-03T07:50:06.517Z,88.10
2022-08-03T07:52:49.590Z,87.70
2022-08-03T07:55:19.094Z,86.60
2022-08-03T07:57:47.616Z,86.40
2022-08-03T08:00:18.301Z,87.00
2022-08-03T08:02:48.009Z,87.40
2022-08-03T08:05:16.268Z,86.00
2022-08-03T08:07:44.547Z,86.40
2022-08-03T08:10:20.341Z,85.30
2022-08-03T08:12:49.437Z,84.80
2022-08-03T08:15:17.820Z,83.40
2022-08-03T08:17:49.907Z,83.40
2022-08-03T08:20:30.838Z,83.30
2022-08-03T08:23:01.881Z,84.80
2022-08-03T08:25:32.293Z,84.30
2022-08-03T08:28:30.435Z,83.30
2022-08-03T08:30:51.902Z,83.50
2022-08-03T08:33:23.179Z,83.60
2022-08-03T08:35:53.330Z,83.60
2022-08-03T08:38:21.709Z,83.60
2022-08-03T08:40:50.661Z,81.60
2022-08-03T08:43:18.986Z,82.80
2022-08-03T08:45:48.687Z,83.00
2022-08-03T08:48:19.255Z,81.90
2022-08-03T08:50:49.539Z,82.10
2022-08-03T08:53:22.796Z,81.60
2022-08-03T08:56:00.905Z,80.90
2022-08-03T08:58:32.568Z,80.70
2022-08-03T09:01:01.039Z,80.40
2022-08-03T09:03:30.777Z,80.20
2022-08-03T09:06:02.449Z,80.10
2022-08-03T09:08:32.259Z,79.20
2022-08-03T09:11:00.600Z,79.40
2022-08-03T09:13:30.511Z,78.90
2022-08-03T09:16:15.709Z,79.00
2022-08-03T09:18:46.012Z,76.40
2022-08-03T09:21:34.167Z,77.60
2022-08-03T09:24:07.100Z,76.90
2022-08-03T09:26:39.219Z,76.10
2022-08-03T09:29:15.354Z,75.70
2022-08-03T09:31:45.759Z,75.60
2022-08-03T09:34:16.673Z,75.80
2022-08-03T09:36:47.674Z,76.20
2022-08-03T09:39:17.634Z,74.50
2022-08-03T09:41:48.261Z,74.90
2022-08-03T09:44:25.754Z,74.20
2022-08-03T09:46:57.179Z,75.20
2022-08-03T09:49:25.916Z,75.10
2022-08-03T09:52:31.952Z,74.70
2022-08-03T09:54:44.700Z,73.80
2022-08-03T09:57:23.840Z,74.90
2022-08-03T10:00:02.979Z,74.70
2022-08-03T10:02:41.318Z,76.70
2022-08-03T10:05:17.506Z,75.40
2022-08-03T10:07:50.767Z,74.70
2022-08-03T10:10:29.336Z,73.60
2022-08-03T10:13:01.587Z,74.00
2022-08-03T10:16:22.945Z,75.30
2022-08-03T10:18:18.678Z,74.00
2022-08-03T10:20:50.895Z,72.90
2022-08-03T10:23:22.444Z,74.20
2022-08-03T10:25:59.069Z,73.80
2022-08-03T10:28:33.746Z,72.90
2022-08-03T10:31:03.763Z,72.40
2022-08-03T10:33:52.090Z,73.20
2022-08-03T10:36:24.012Z,72.80
2022-08-03T10:38:54.315Z,72.70
2022-08-03T10:41:24.419Z,71.80
2022-08-03T10:43:57.884Z,72.00
2022-08-03T10:46:28.237Z,71.70
2022-08-03T10:48:57.546Z,72.00
2022-08-03T10:51:30.519Z,72.60
2022-08-03T10:54:01.893Z,71.30
2022-08-03T10:56:58.538Z,72.00
2022-08-03T11:00:03.139Z,70.80
2022-08-03T11:03:07.368Z,70.00
2022-08-03T11:05:38.515Z,71.60
2022-08-03T11:08:26.265Z,70.80
2022-08-03T11:10:58.395Z,70.70
2022-08-03T11:13:30.987Z,70.80
2022-08-03T11:16:06.263Z,70.60
2022-08-03T11:18:36.486Z,72.00
2022-08-03T11:21:04.953Z,70.60
2022-08-03T11:24:04.780Z,70.30
2022-08-03T11:26:36.175Z,69.60
2022-08-03T11:29:29.782Z,70.40
2022-08-03T11:31:58.844Z,69.80
2022-08-03T11:34:27.506Z,69.80
2022-08-03T11:37:22.980Z,70.10
2022-08-03T11:39:57.195Z,69.50
2022-08-03T11:42:47.031Z,70.70
2022-08-03T11:45:16.033Z,69.70
2022-08-03T11:47:50.138Z,69.60
2022-08-03T11:50:21.479Z,69.40
2022-08-03T11:52:50.613Z,70.70
2022-08-03T11:55:22.096Z,69.20
2022-08-03T11:59:17.274Z,69.80
2022-08-03T12:00:40.635Z,69.00
2022-08-03T12:03:12.286Z,69.60
2022-08-03T12:05:48.077Z,68.00
2022-08-03T12:08:32.178Z,68.20
2022-08-03T12:11:02.927Z,67.80
2022-08-03T12:13:56.643Z,67.00
2022-08-03T12:16:29.652Z,67.50
2022-08-03T12:18:59.743Z,68.00
2022-08-03T12:21:29.508Z,66.30
2022-08-03T12:24:00.465Z,67.60
2022-08-03T12:26:29.778Z,68.40
2022-08-03T12:28:59.522Z,67.30
2022-08-03T12:31:27.813Z,66.70
2022-08-03T12:33:58.941Z,65.50
2022-08-03T12:36:28.399Z,65.80
2022-08-03T12:38:59.142Z,68.80
2022-08-03T12:41:34.157Z,65.70
2022-08-03T12:44:05.041Z,67.30
2022-08-03T12:46:35.554Z,66.40
2022-08-03T12:49:09.186Z,66.40
2022-08-03T12:51:39.484Z,64.60
2022-08-03T12:54:08.140Z,66.60
2022-08-03T12:56:36.781Z,65.20
2022-08-03T12:59:32.395Z,65.20
2022-08-03T13:02:09.358Z,64.20
2022-08-03T13:04:38.572Z,62.50
2022-08-03T13:07:17.912Z,64.00
2022-08-03T13:09:48.258Z,63.70
2022-08-03T13:12:18.044Z,62.80
2022-08-03T13:14:50.485Z,62.50
2022-08-03T13:17:19.391Z,62.10
2022-08-03T13:19:48.834Z,62.40
2022-08-03T13:22:18.564Z,63.60
2022-08-03T13:24:48.122Z,63.40
2022-08-03T13:28:10.979Z,63.00
2022-08-03T13:30:08.567Z,64.80
2022-08-03T13:32:37.267Z,64.00
2022-08-03T13:35:06.997Z,61.50
2022-08-03T13:37:36.634Z,60.60
2022-08-03T13:40:06.867Z,62.30
2022-08-03T13:42:36.672Z,59.90
2022-08-03T13:45:08.887Z,61.30
2022-08-03T13:47:38.167Z,61.80
2022-08-03T13:50:06.832Z,60.90
2022-08-03T13:52:36.186Z,61.60
2022-08-03T13:55:06.033Z,60.20
2022-08-03T13:58:04.141Z,59.10
2022-08-03T14:00:27.855Z,59.40
2022-08-03T14:03:03.930Z,58.80
2022-08-03T14:05:33.802Z,60.30
2022-08-03T14:08:04.719Z,59.00
2022-08-03T14:10:34.405Z,58.30
2022-08-03T14:13:02.732Z,60.30
2022-08-03T14:15:37.577Z,59.30
2022-08-03T14:18:15.540Z,59.00
2022-08-03T14:20:47.844Z,59.60
2022-08-03T14:23:19.072Z,59.90
2022-08-03T14:25:51.630Z,59.50
2022-08-03T14:28:23.551Z,59.80
2022-08-03T14:30:54.757Z,61.20
2022-08-03T14:33:23.405Z,59.70
2022-08-03T14:35:52.684Z,60.10
2022-08-03T14:38:21.603Z,58.90
2022-08-03T14:40:50.315Z,57.20
2022-08-03T14:43:20.329Z,59.10
2022-08-03T14:45:52.045Z,61.50
2022-08-03T14:50:29.671Z,58.80
2022-08-03T14:51:11.223Z,58.40
2022-08-03T14:53:39.600Z,58.10
2022-08-03T14:56:10.364Z,59.50
2022-08-03T14:58:39.272Z,58.50
2022-08-03T15:02:03.260Z,58.40
2022-08-03T15:03:58.565Z,59.90
2022-08-03T15:06:26.804Z,61.80
2022-08-03T15:09:21.353Z,61.80
2022-08-03T15:11:43.754Z,61.60
2022-08-03T15:14:13.451Z,63.30
2022-08-03T15:16:43.111Z,60.40
2022-08-03T15:20:00.931Z,61.30
2022-08-03T15:22:01.789Z,57.60
2022-08-03T15:24:30.571Z,58.00
2022-08-03T15:26:58.962Z,57.70
2022-08-03T15:30:07.256Z,56.90
2022-08-03T15:32:15.935Z,57.80
2022-08-03T15:34:50.641Z,57.50
2022-08-03T15:37:20.727Z,57.70
2022-08-03T15:39:59.990Z,56.70
2022-08-03T15:42:30.495Z,57.60
2022-08-03T15:44:59.110Z,57.40
2022-08-03T15:47:27.746Z,57.60
2022-08-03T15:49:57.434Z,57.70
2022-08-03T15:52:25.909Z,57.20
2022-08-03T15:54:54.372Z,57.40
2022-08-03T15:57:23.384Z,57.30
2022-08-03T15:59:51.948Z,58.00
2022-08-03T16:02:20.346Z,58.60
2022-08-03T16:04:48.783Z,59.10
2022-08-03T16:07:38.424Z,58.40
2022-08-03T16:10:07.550Z,60.40
2022-08-03T16:12:35.832Z,59.80
2022-08-03T16:15:04.517Z,61.60
2022-08-03T16:17:33.476Z,59.30
2022-08-03T16:20:04.121Z,58.50
2022-08-03T16:22:44.553Z,58.10
2022-08-03T16:25:16.061Z,57.00
2022-08-03T16:28:07.346Z,59.30
2022-08-03T16:30:33.601Z,59.60
2022-08-03T16:33:01.983Z,58.10
2022-08-03T16:35:30.229Z,57.10
2022-08-03T16:37:59.907Z,57.90
2022-08-03T16:40:28.353Z,58.00
2022-08-03T16:42:56.669Z,58.30
2022-08-03T16:45:25.049Z,57.80
2022-08-03T16:48:01.433Z,57.20
2022-08-03T16:50:33.668Z,58.00
2022-08-03T16:53:09.365Z,58.00
2022-08-03T16:55:43.439Z,57.10
2022-08-03T16:58:34.924Z,57.10
2022-08-03T17:01:22.021Z,57.90
2022-08-03T17:04:01.951Z,57.60
2022-08-03T17:06:35.732Z,56.60
2022-08-03T17:09:08.699Z,57.00
2022-08-03T17:11:43.918Z,57.10
2022-08-03T17:14:16.996Z,58.00
2022-08-03T17:16:52.429Z,58.40
2022-08-03T17:19:24.088Z,59.50
2022-08-03T17:21:58.254Z,59.60
2022-08-03T17:24:32.757Z,58.50
2022-08-03T17:27:03.994Z,60.60
2022-08-03T17:29:45.234Z,62.00
2022-08-03T17:32:18.431Z,61.60
2022-08-03T17:34:50.469Z,61.90
2022-08-03T17:37:49.865Z,62.10
2022-08-03T17:40:17.655Z,62.10
2022-08-03T17:42:50.458Z,62.60
2022-08-03T17:45:20.043Z,63.50
2022-08-03T17:47:57.453Z,62.90
2022-08-03T17:50:41.271Z,61.60
2022-08-03T17:53:24.068Z,61.50
2022-08-03T17:58:58.959Z,60.20
2022-08-03T18:02:04.410Z,60.60
2022-08-03T18:04:43.754Z,61.10
2022-08-03T18:07:40.689Z,61.40
2022-08-03T18:10:15.039Z,62.70
2022-08-03T18:12:52.256Z,64.50
2022-08-03T18:15:26.244Z,65.80
2022-08-03T18:18:02.375Z,66.70
2022-08-03T18:20:41.051Z,67.00
2022-08-03T18:23:25.393Z,67.70
2022-08-03T18:26:04.889Z,68.40
2022-08-03T18:28:38.346Z,69.20
2022-08-03T18:31:07.761Z,69.60
2022-08-03T18:34:19.721Z,70.20
2022-08-03T18:36:29.930Z,70.30
2022-08-03T18:39:01.849Z,71.30
2022-08-03T18:41:34.635Z,72.10
2022-08-03T18:44:08.866Z,72.60
2022-08-03T18:46:47.583Z,73.30
2022-08-03T18:49:30.314Z,73.80
2022-08-03T18:52:05.015Z,74.60
2022-08-03T18:55:01.193Z,74.90
2022-08-03T18:57:43.349Z,75.00
2022-08-03T19:00:15.995Z,75.90
2022-08-03T19:02:50.670Z,76.50
2022-08-03T19:05:21.758Z,76.90
2022-08-03T19:07:59.777Z,77.00
2022-08-03T19:10:34.160Z,77.10
2022-08-03T19:13:11.499Z,77.00
2022-08-03T19:15:51.541Z,77.80
2022-08-03T19:18:22.875Z,78.70
2022-08-03T19:20:55.872Z,78.60
2022-08-03T19:23:25.885Z,80.20
2022-08-03T19:25:54.780Z,79.50
2022-08-03T19:28:29.634Z,80.00
2022-08-03T19:31:02.650Z,80.30
2022-08-03T19:33:56.096Z,80.20
2022-08-03T19:36:28.224Z,81.10
2022-08-03T19:38:57.675Z,81.70
2022-08-03T19:41:31.171Z,82.20
2022-08-03T19:44:12.737Z,82.70
2022-08-03T19:46:55.592Z,83.10
2022-08-03T19:49:56.999Z,83.30
2022-08-03T19:52:24.180Z,83.90
2022-08-03T19:55:00.205Z,84.10
2022-08-03T19:57:29.968Z,84.20
2022-08-03T20:00:03.315Z,84.90
2022-08-03T20:02:34.264Z,84.90
2022-08-03T20:05:02.971Z,85.80
2022-08-03T20:07:32.871Z,86.80
2022-08-03T20:10:02.668Z,87.20
2022-08-03T20:12:36.979Z,87.10
2022-08-03T20:15:09.110Z,87.60
2022-08-03T20:17:57.050Z,87.50
2022-08-03T20:20:29.828Z,88.00
2022-08-03T20:23:00.206Z,89.10
2022-08-03T20:25:39.003Z,88.80
2022-08-03T20:28:13.988Z,89.20
2022-08-03T20:30:47.420Z,89.90
2022-08-03T20:33:19.100Z,90.10
2022-08-03T20:36:06.146Z,90.20
2022-08-03T20:38:34.483Z,90.30
2022-08-03T20:41:12.386Z,90.60
2022-08-03T20:43:42.011Z,90.90
2022-08-03T20:46:31.738Z,91.10
2022-08-03T20:48:59.944Z,91.10
2022-08-03T20:51:49.527Z,91.30
2022-08-03T20:54:29.373Z,91.40
2022-08-03T20:57:00.078Z,91.10
2022-08-03T20:59:35.070Z,91.10
2022-08-03T21:02:07.331Z,91.10
2022-08-03T21:04:41.906Z,91.20
2022-08-03T21:07:23.025Z,91.40
2022-08-03T21:09:55.495Z,91.60
2022-08-03T21:12:32.081Z,91.70
2022-08-03T21:12:55.769Z,59.90
2022-08-03T21:15:03.814Z,92.20
2022-08-03T21:17:42.417Z,92.60
2022-08-03T21:20:13.849Z,92.70
2022-08-03T21:22:46.430Z,92.70
2022-08-03T21:25:16.758Z,92.60
2022-08-03T21:27:45.548Z,92.40
2022-08-03T21:30:15.351Z,92.40
2022-08-03T21:32:45.480Z,92.40
2022-08-03T21:35:16.136Z,92.50
2022-08-03T21:37:45.788Z,92.80
2022-08-03T21:40:16.588Z,92.90
2022-08-03T21:42:46.137Z,92.80
2022-08-03T21:45:17.573Z,92.90
2022-08-03T21:47:48.387Z,93.10
2022-08-03T21:50:18.758Z,93.30
2022-08-03T21:52:48.747Z,93.30
2022-08-03T21:55:18.422Z,93.50
2022-08-03T21:57:53.466Z,93.60
2022-08-03T22:00:23.947Z,93.50
2022-08-03T22:02:55.325Z,93.40
2022-08-03T22:05:42.451Z,93.60
2022-08-03T22:08:11.947Z,93.90
2022-08-03T22:10:40.529Z,94.00
2022-08-03T22:13:08.968Z,93.90
2022-08-03T22:15:37.280Z,94.00
2022-08-03T22:18:06.401Z,94.10
2022-08-03T22:20:36.419Z,94.40
2022-08-03T22:23:07.081Z,94.40
2022-08-03T22:25:39.341Z,94.70
2022-08-03T22:28:10.979Z,94.80
2022-08-03T22:30:41.220Z,94.90
2022-08-03T22:33:12.045Z,95.00
2022-08-03T22:35:48.110Z,95.20
2022-08-03T22:38:18.200Z,95.20
2022-08-03T22:40:50.736Z,95.20
2022-08-03T22:43:22.597Z,95.30
2022-08-03T22:46:08.999Z,95.60
2022-08-03T22:48:40.831Z,95.70
2022-08-03T22:51:11.072Z,96.00
2022-08-03T22:53:40.584Z,95.90
2022-08-03T22:56:09.123Z,96.20
2022-08-03T22:58:37.549Z,96.30
2022-08-03T23:01:09.444Z,96.40
2022-08-03T23:04:00.863Z,96.70
2022-08-03T23:06:35.505Z,96.90
2022-08-03T23:09:06.596Z,96.80
2022-08-03T23:11:37.967Z,96.90
2022-08-03T23:14:15.087Z,96.90
2022-08-03T23:16:44.881Z,96.90
2022-08-03T23:19:17.256Z,97.00
2022-08-03T23:22:02.827Z,96.90
2022-08-03T23:24:35.773Z,97.10
2022-08-03T23:27:05.187Z,97.40
2022-08-03T23:29:35.827Z,97.70
2022-08-03T23:32:05.580Z,97.60
2022-08-03T23:34:51.968Z,97.80
2022-08-03T23:37:21.768Z,97.80
2022-08-03T23:39:50.584Z,97.80
2022-08-03T23:42:20.565Z,97.80
2022-08-03T23:44:55.494Z,97.80
2022-08-03T23:47:24.454Z,97.90
2022-08-03T23:50:12.876Z,97.90
2022-08-03T23:52:53.815Z,97.80
2022-08-03T23:55:34.160Z,97.90
2022-08-03T23:58:09.057Z,97.70
